createdAt,value
2022-12-07T00:02:18.176Z,1.40
2022-12-07T00:07:23.669Z,1.15
2022-12-07T00:12:29.539Z,1.30
2022-12-07T00:17:34.597Z,1.70
2022-12-07T00:22:36.539Z,1.10
2022-12-07T00:27:38.457Z,1.20
2022-12-07T00:32:41.731Z,1.27
2022-12-07T00:37:43.653Z,1.00
2022-12-07T00:42:45.580Z,1.67
2022-12-07T00:47:48.829Z,0.93
2022-12-07T00:52:50.757Z,1.50
2022-12-07T00:57:52.639Z,1.20
2022-12-07T01:02:55.960Z,1.60
2022-12-07T01:07:58.373Z,2.28
2022-12-07T01:13:00.477Z,1.48
2022-12-07T01:18:03.938Z,1.17
2022-12-07T01:23:06.047Z,2.60
2022-12-07T01:28:07.928Z,2.35
2022-12-07T01:33:11.180Z,2.20
2022-12-07T01:38:13.092Z,3.58
2022-12-07T01:43:18.695Z,1.65
2022-12-07T01:48:27.204Z,3.92
2022-12-07T01:53:30.913Z,2.97
2022-12-07T01:58:32.868Z,3.65
2022-12-07T02:03:40.118Z,3.05
2022-12-07T02:08:43.121Z,4.57
2022-12-07T02:13:47.279Z,3.50
2022-12-07T02:19:07.623Z,2.17
2022-12-07T02:24:20.093Z,3.75
2022-12-07T02:29:26.428Z,3.35
2022-12-07T02:34:38.099Z,3.85
2022-12-07T02:39:45.694Z,2.78
2022-12-07T02:44:49.257Z,3.35
2022-12-07T02:49:52.223Z,4.45
2022-12-07T02:54:54.170Z,5.15
2022-12-07T03:00:05.721Z,4.93
2022-12-07T03:05:22.555Z,5.57
2022-12-07T03:10:33.726Z,6.85
2022-12-07T03:15:42.953Z,5.95
2022-12-07T03:20:48.750Z,4.95
2022-12-07T03:26:00.426Z,7.97
2022-12-07T03:31:11.968Z,5.20
2022-12-07T03:36:22.353Z,6.18
2022-12-07T03:46:36.870Z,9.00
2022-12-07T03:51:44.730Z,6.68
2022-12-07T03:56:48.373Z,4.05
2022-12-07T04:01:55.623Z,3.75
2022-12-07T04:06:57.841Z,5.10
2022-12-07T04:11:59.795Z,4.70
2022-12-07T04:17:03.024Z,7.30
2022-12-07T04:22:05.968Z,5.57
2022-12-07T04:27:07.957Z,7.50
2022-12-07T04:32:11.200Z,7.28
2022-12-07T04:37:13.131Z,7.38
2022-12-07T04:42:15.065Z,7.68
2022-12-07T04:47:19.414Z,5.35
2022-12-07T04:52:23.601Z,8.20
2022-12-07T04:57:25.583Z,5.72
2022-12-07T05:02:28.900Z,3.85
2022-12-07T05:07:30.912Z,6.35
2022-12-07T05:12:32.848Z,4.20
2022-12-07T05:17:36.159Z,4.20
2022-12-07T05:22:38.037Z,5.55
2022-12-07T05:27:40.002Z,4.85
2022-12-07T05:32:43.296Z,1.88
2022-12-07T05:37:45.698Z,3.83
2022-12-07T05:42:47.726Z,4.70
2022-12-07T05:47:50.981Z,7.40
2022-12-07T05:52:52.885Z,6.03
2022-12-07T05:58:13.312Z,5.00
2022-12-07T06:03:16.684Z,7.22
2022-12-07T06:08:18.721Z,4.53
2022-12-07T06:13:20.686Z,4.35
2022-12-07T06:18:23.926Z,4.93
2022-12-07T06:23:25.890Z,5.22
2022-12-07T06:28:27.820Z,4.25
2022-12-07T06:33:31.782Z,6.00
2022-12-07T06:38:33.703Z,6.50
2022-12-07T06:43:35.662Z,3.75
2022-12-07T06:48:38.918Z,4.43
2022-12-07T06:53:40.884Z,3.90
2022-12-07T06:58:42.864Z,4.72
2022-12-07T07:03:47.212Z,5.30
2022-12-07T07:08:49.201Z,2.13
2022-12-07T07:13:51.144Z,3.72
2022-12-07T07:18:54.419Z,5.28
2022-12-07T07:23:57.356Z,2.83
2022-12-07T07:28:59.243Z,2.72
2022-12-07T07:34:02.526Z,4.10
2022-12-07T07:39:04.879Z,1.45
2022-12-07T07:44:06.817Z,5.05
2022-12-07T07:49:11.601Z,2.03
2022-12-07T07:54:13.549Z,2.25
2022-12-07T07:59:15.566Z,3.65
2022-12-07T08:04:18.890Z,2.83
2022-12-07T08:09:20.912Z,2.60
2022-12-07T08:14:22.912Z,2.22
2022-12-07T08:19:26.329Z,3.58
2022-12-07T08:24:28.275Z,5.68
2022-12-07T08:29:30.303Z,3.65
2022-12-07T08:34:33.634Z,1.15
2022-12-07T08:39:36.038Z,2.35
2022-12-07T08:44:37.949Z,2.92
2022-12-07T08:49:44.768Z,2.38
2022-12-07T08:54:48.053Z,2.67
2022-12-07T08:59:50.062Z,3.17
2022-12-07T09:04:53.327Z,2.53
2022-12-07T09:09:55.301Z,3.10
2022-12-07T09:14:57.477Z,3.35
2022-12-07T09:20:02.409Z,2.13
2022-12-07T09:25:05.568Z,1.55
2022-12-07T09:30:08.227Z,1.95
2022-12-07T09:35:11.454Z,2.10
2022-12-07T09:40:14.820Z,1.33
2022-12-07T09:45:22.066Z,1.75
2022-12-07T09:50:28.466Z,2.92
2022-12-07T09:55:31.948Z,2.45
2022-12-07T10:00:33.930Z,2.92
2022-12-07T10:05:41.969Z,2.10
2022-12-07T10:10:44.951Z,2.47
2022-12-07T10:15:51.079Z,1.92
2022-12-07T10:21:05.122Z,1.65
2022-12-07T10:26:30.062Z,2.78
2022-12-07T10:31:32.454Z,2.25
2022-12-07T10:36:38.147Z,2.00
2022-12-07T10:41:55.034Z,1.95
2022-12-07T10:47:19.387Z,1.80
2022-12-07T10:52:38.910Z,1.45
2022-12-07T10:57:54.726Z,1.65
2022-12-07T11:03:26.057Z,1.85
2022-12-07T11:08:45.129Z,2.88
2022-12-07T11:13:54.039Z,2.15
2022-12-07T11:19:15.250Z,2.38
2022-12-07T11:24:20.448Z,3.05
2022-12-07T11:29:54.357Z,3.25
2022-12-07T11:35:07.865Z,3.38
2022-12-07T11:40:21.185Z,2.40
2022-12-07T11:45:27.059Z,3.50
2022-12-07T11:50:37.155Z,2.03
2022-12-07T12:00:45.199Z,2.25
2022-12-07T12:05:47.381Z,2.00
2022-12-07T12:11:01.369Z,1.75
2022-12-07T12:16:15.291Z,1.90
2022-12-07T12:21:20.288Z,2.30
2022-12-07T12:26:26.542Z,1.80
2022-12-07T12:31:40.149Z,1.80
2022-12-07T12:36:49.159Z,2.00
2022-12-07T12:42:01.750Z,2.35
2022-12-07T12:47:05.614Z,3.72
2022-12-07T12:52:50.615Z,3.20
2022-12-07T12:58:30.060Z,4.35
2022-12-07T13:03:35.199Z,2.03
2022-12-07T13:08:42.669Z,4.88
2022-12-07T13:13:44.664Z,3.97
2022-12-07T13:18:47.997Z,3.65
2022-12-07T13:23:56.293Z,2.15
2022-12-07T13:29:11.674Z,3.65
2022-12-07T13:34:32.714Z,5.97
2022-12-07T13:39:45.203Z,4.78
2022-12-07T13:44:47.167Z,3.80
2022-12-07T13:49:54.038Z,4.00
2022-12-07T13:54:58.955Z,2.83
2022-12-07T14:00:01.446Z,4.45
2022-12-07T14:05:11.676Z,2.63
2022-12-07T14:10:25.497Z,3.70
2022-12-07T14:15:30.629Z,5.13
2022-12-07T14:20:37.688Z,4.32
2022-12-07T14:25:50.677Z,5.97
2022-12-07T14:30:53.640Z,6.25
2022-12-07T14:35:59.202Z,4.40
2022-12-07T14:41:20.030Z,3.85
2022-12-07T14:46:22.023Z,3.20
2022-12-07T14:56:51.790Z,4.25
2022-12-07T15:01:53.802Z,5.25
2022-12-07T15:06:58.578Z,4.75
2022-12-07T15:12:00.795Z,2.78
2022-12-07T15:17:15.835Z,5.00
2022-12-07T15:22:26.116Z,4.10
2022-12-07T15:27:28.090Z,3.33
2022-12-07T15:32:30.136Z,8.15
2022-12-07T15:37:33.505Z,5.78
2022-12-07T15:42:36.472Z,12.30
2022-12-07T15:48:10.424Z,8.25
2022-12-07T15:53:03.294Z,3.63
2022-12-07T15:58:05.280Z,4.85
2022-12-07T16:03:07.304Z,6.40
2022-12-07T16:08:10.767Z,5.85
2022-12-07T16:13:14.485Z,2.92
2022-12-07T16:18:16.562Z,4.22
2022-12-07T16:23:19.925Z,3.50
2022-12-07T16:28:21.889Z,3.90
2022-12-07T16:33:23.799Z,3.60
2022-12-07T16:38:27.961Z,2.20
2022-12-07T16:43:29.930Z,4.72
2022-12-07T16:48:32.021Z,3.08
2022-12-07T16:53:36.407Z,2.65
2022-12-07T16:58:38.407Z,3.30
2022-12-07T17:03:40.943Z,9.75
2022-12-07T17:08:44.636Z,13.40
2022-12-07T17:14:05.199Z,4.65
2022-12-07T17:19:09.090Z,3.10
2022-12-07T17:24:15.034Z,3.65
2022-12-07T17:29:18.991Z,2.50
2022-12-07T17:34:20.957Z,3.03
2022-12-07T17:39:24.277Z,2.15
2022-12-07T17:44:28.421Z,2.25
2022-12-07T17:49:30.431Z,3.08
2022-12-07T17:54:33.772Z,2.03
2022-12-07T17:59:35.857Z,2.72
2022-12-07T18:04:37.983Z,2.55
2022-12-07T18:09:42.166Z,1.45
2022-12-07T18:14:44.208Z,2.35
2022-12-07T18:19:46.620Z,2.50
2022-12-07T18:24:49.910Z,2.92
2022-12-07T18:29:52.742Z,2.22
2022-12-07T18:34:54.761Z,2.13
2022-12-07T18:39:58.239Z,2.40
2022-12-07T18:45:00.485Z,1.45
2022-12-07T18:50:02.938Z,2.15
2022-12-07T18:55:07.360Z,3.10
2022-12-07T19:00:10.313Z,1.73
2022-12-07T19:05:12.311Z,1.73
2022-12-07T19:10:15.691Z,2.50
2022-12-07T19:15:17.625Z,1.70
2022-12-07T19:20:19.594Z,1.42
2022-12-07T19:25:22.965Z,2.15
2022-12-07T19:30:24.956Z,1.33
2022-12-07T19:35:26.899Z,1.30
2022-12-07T19:40:30.202Z,1.90
2022-12-07T19:45:34.609Z,1.67
2022-12-07T19:50:36.572Z,1.75
2022-12-07T19:55:41.986Z,1.30
2022-12-07T20:00:43.955Z,1.33
2022-12-07T20:05:46.036Z,2.25
2022-12-07T20:10:50.895Z,2.13
2022-12-07T20:15:58.269Z,1.40
2022-12-07T20:21:14.049Z,1.27
2022-12-07T20:26:17.340Z,1.58
2022-12-07T20:31:19.460Z,1.45
2022-12-07T20:36:21.458Z,1.00
2022-12-07T20:41:43.491Z,1.83
2022-12-07T20:46:46.286Z,2.58
2022-12-07T20:51:48.448Z,1.10
2022-12-07T20:56:51.860Z,1.90
2022-12-07T21:01:53.872Z,1.50
2022-12-07T21:06:55.833Z,1.25
2022-12-07T21:12:00.296Z,2.75
2022-12-07T21:17:02.316Z,1.42
2022-12-07T21:22:05.035Z,1.05
2022-12-07T21:27:08.900Z,1.65
2022-12-07T21:32:11.572Z,1.45
2022-12-07T21:37:13.651Z,2.03
2022-12-07T21:42:16.950Z,1.98
2022-12-07T21:47:18.935Z,1.00
2022-12-07T21:52:20.856Z,2.28
2022-12-07T21:57:24.145Z,1.80
2022-12-07T22:02:26.110Z,1.80
2022-12-07T22:07:28.575Z,2.55
2022-12-07T22:12:31.865Z,1.85
2022-12-07T22:17:33.912Z,2.20
2022-12-07T22:22:35.834Z,1.75
2022-12-07T22:27:39.576Z,2.00
2022-12-07T22:32:49.610Z,1.70
2022-12-07T22:42:54.911Z,2.08
2022-12-07T22:47:56.815Z,2.72
2022-12-07T22:52:59.086Z,6.40
2022-12-07T22:58:04.014Z,4.68
2022-12-07T23:03:05.965Z,2.50
2022-12-07T23:08:08.025Z,2.50
2022-12-07T23:13:31.089Z,2.25
2022-12-07T23:18:32.991Z,2.05
2022-12-07T23:23:35.448Z,1.77
2022-12-07T23:28:39.050Z,1.65
2022-12-07T23:33:41.980Z,2.83
2022-12-07T23:38:45.396Z,2.25
2022-12-07T23:43:48.914Z,2.63
2022-12-07T23:48:53.248Z,1.10
2022-12-07T23:53:55.738Z,2.35
2022-12-07T23:59:00.030Z,3.45
